BTV weather

Burlington International Airport
Burlington, Vermont, United States

Public forecast

Using degrees Fahrenheit for public forecast. Weather courtesy of forecast.io.

Current aviation weather report (METAR) for Burlington International Airport

Retrieved 2019/10/21 20:54 UTC (20 minutes ago):

KBTV 212054Z 32007KT 10SM SCT200 16/06 A3013 RMK AO2 SLP203 T01560056 53004

Aviation forecast (TAF) for Burlington International Airport

Retrieved 2019/10/21 17:33 UTC (4 hours ago):

TAF COR KBTV 211730Z 2117/2218 33004KT P6SM SKC FM220900 15006KT P6SM BKN200 FM221400 16012KT P6SM BKN150 FM221600 16013G21KT P6SM BKN150